createdAt,value
2019-03-30T00:00:17.165Z,22.22
2019-03-30T00:02:45.669Z,22.21
2019-03-30T00:05:14.085Z,22.21
2019-03-30T00:07:42.526Z,22.21
2019-03-30T00:10:11.185Z,22.20
2019-03-30T00:12:39.629Z,22.19
2019-03-30T00:15:08.300Z,22.19
2019-03-30T00:17:36.723Z,22.18
2019-03-30T00:20:06.390Z,22.16
2019-03-30T00:22:34.786Z,22.19
2019-03-30T00:25:03.992Z,22.19
2019-03-30T00:27:32.446Z,22.19
2019-03-30T00:30:00.908Z,22.19
2019-03-30T00:32:29.322Z,22.19
2019-03-30T00:34:57.775Z,22.17
2019-03-30T00:37:26.199Z,22.16
2019-03-30T00:39:54.632Z,22.18
2019-03-30T00:42:23.044Z,22.18
2019-03-30T00:44:51.489Z,22.18
2019-03-30T00:47:19.944Z,22.20
2019-03-30T00:49:50.120Z,22.21
2019-03-30T00:52:18.688Z,22.20
2019-03-30T00:54:47.230Z,22.19
2019-03-30T00:57:15.627Z,22.17
2019-03-30T00:59:44.081Z,22.15
2019-03-30T01:02:12.503Z,22.13
2019-03-30T01:04:40.945Z,22.14
2019-03-30T01:07:09.363Z,22.15
2019-03-30T01:09:37.806Z,22.13
2019-03-30T01:12:06.254Z,22.11
2019-03-30T01:14:34.691Z,22.10
2019-03-30T01:17:03.493Z,22.09
2019-03-30T01:19:31.930Z,22.09
2019-03-30T01:22:00.354Z,22.08
2019-03-30T01:24:28.850Z,22.05
2019-03-30T01:26:57.284Z,22.04
2019-03-30T01:29:25.719Z,22.02
2019-03-30T01:31:54.173Z,22.00
2019-03-30T01:34:22.580Z,21.99
2019-03-30T01:36:51.014Z,21.98
2019-03-30T01:39:19.459Z,21.98
2019-03-30T01:41:48.447Z,21.97
2019-03-30T01:44:16.886Z,21.97
2019-03-30T01:46:45.312Z,21.95
2019-03-30T01:49:13.749Z,21.96
2019-03-30T01:51:42.206Z,21.95
2019-03-30T01:54:10.641Z,21.93
2019-03-30T01:56:39.076Z,21.93
2019-03-30T01:59:07.489Z,21.90
2019-03-30T02:01:35.943Z,21.89
2019-03-30T02:04:04.362Z,21.88
2019-03-30T02:06:32.831Z,21.88
2019-03-30T02:09:01.277Z,21.86
2019-03-30T02:11:29.712Z,21.87
2019-03-30T02:13:58.150Z,21.87
2019-03-30T02:16:26.586Z,21.85
2019-03-30T02:18:55.005Z,21.86
2019-03-30T02:21:23.407Z,21.85
2019-03-30T02:23:51.865Z,21.83
2019-03-30T02:26:20.290Z,21.82
2019-03-30T02:28:48.738Z,21.81
2019-03-30T02:31:17.181Z,21.82
2019-03-30T02:33:45.592Z,21.80
2019-03-30T02:36:14.001Z,21.80
2019-03-30T02:38:42.441Z,21.80
2019-03-30T02:41:10.865Z,21.78
2019-03-30T02:43:39.280Z,21.77
2019-03-30T02:46:07.713Z,21.76
2019-03-30T02:48:36.168Z,21.77
2019-03-30T02:51:04.539Z,21.75
2019-03-30T02:53:32.961Z,21.74
2019-03-30T02:56:01.419Z,21.74
2019-03-30T02:58:29.841Z,21.74
2019-03-30T03:00:58.270Z,21.73
2019-03-30T03:03:26.808Z,21.73
2019-03-30T03:05:55.246Z,21.74
2019-03-30T03:08:23.645Z,21.74
2019-03-30T03:10:52.090Z,21.73
2019-03-30T03:13:20.493Z,21.72
2019-03-30T03:15:48.991Z,21.71
2019-03-30T03:18:17.401Z,21.71
2019-03-30T03:20:45.827Z,21.71
2019-03-30T03:23:14.265Z,21.69
2019-03-30T03:25:42.689Z,21.70
2019-03-30T03:28:11.107Z,21.68
2019-03-30T03:30:39.555Z,21.68
2019-03-30T03:33:08.029Z,21.66
2019-03-30T03:35:36.505Z,21.67
2019-03-30T03:38:04.951Z,21.67
2019-03-30T03:40:33.375Z,21.65
2019-03-30T03:43:01.880Z,21.67
2019-03-30T03:45:30.294Z,21.67
2019-03-30T03:47:58.739Z,21.66
2019-03-30T03:50:36.221Z,21.66
2019-03-30T03:53:04.923Z,21.65
2019-03-30T03:55:35.483Z,21.66
2019-03-30T03:58:05.671Z,21.66
2019-03-30T04:00:35.415Z,21.66
2019-03-30T04:03:05.881Z,21.66
2019-03-30T04:05:36.815Z,21.66
2019-03-30T04:08:08.410Z,21.66
2019-03-30T04:10:38.677Z,21.66
2019-03-30T04:13:08.799Z,21.67
2019-03-30T04:15:37.239Z,21.67
2019-03-30T04:18:05.674Z,21.67
2019-03-30T04:20:34.093Z,21.66
2019-03-30T04:23:02.506Z,21.66
2019-03-30T04:25:30.935Z,21.66
2019-03-30T04:27:59.361Z,21.66
2019-03-30T04:30:27.881Z,21.65
2019-03-30T04:32:56.366Z,21.64
2019-03-30T04:35:24.783Z,21.64
2019-03-30T04:37:53.230Z,21.64
2019-03-30T04:40:21.624Z,21.64
2019-03-30T04:42:50.043Z,21.64
2019-03-30T04:45:18.482Z,21.61
2019-03-30T04:47:46.893Z,21.63
2019-03-30T04:50:15.322Z,21.63
2019-03-30T04:52:43.854Z,21.63
2019-03-30T04:55:12.373Z,21.63
2019-03-30T04:57:40.810Z,21.64
2019-03-30T05:00:09.549Z,21.63
2019-03-30T05:02:38.156Z,21.62
2019-03-30T05:05:08.072Z,21.62
2019-03-30T05:07:36.571Z,21.62
2019-03-30T05:10:06.794Z,21.61
2019-03-30T05:12:35.238Z,21.61
2019-03-30T05:15:04.781Z,21.61
2019-03-30T05:17:46.858Z,21.61
2019-03-30T05:20:04.579Z,21.59
2019-03-30T05:22:33.015Z,21.59
2019-03-30T05:25:01.597Z,21.61
2019-03-30T05:27:30.037Z,21.59
2019-03-30T05:29:58.440Z,21.59
2019-03-30T05:32:26.856Z,21.59
2019-03-30T05:34:55.277Z,21.59
2019-03-30T05:37:23.717Z,21.58
2019-03-30T05:39:52.147Z,21.59
2019-03-30T05:42:20.575Z,21.59
2019-03-30T05:44:48.991Z,21.60
2019-03-30T05:47:17.432Z,21.61
2019-03-30T05:49:45.863Z,21.62
2019-03-30T05:52:25.861Z,21.62
2019-03-30T05:54:44.461Z,21.63
2019-03-30T05:57:12.911Z,21.63
2019-03-30T05:59:41.315Z,21.63
2019-03-30T06:02:09.755Z,21.64
2019-03-30T06:04:38.173Z,21.67
2019-03-30T06:07:06.613Z,21.69
2019-03-30T06:09:35.023Z,21.71
2019-03-30T06:12:03.467Z,21.76
2019-03-30T06:14:31.879Z,21.78
2019-03-30T06:17:00.330Z,21.81
2019-03-30T06:19:28.777Z,21.84
2019-03-30T06:21:57.197Z,21.88
2019-03-30T06:24:25.645Z,21.91
2019-03-30T06:26:54.227Z,21.96
2019-03-30T06:29:22.667Z,22.03
2019-03-30T06:31:51.078Z,22.12
2019-03-30T06:34:19.547Z,22.17
2019-03-30T06:36:47.984Z,22.26
2019-03-30T06:39:16.442Z,22.33
2019-03-30T06:41:44.861Z,22.39
2019-03-30T06:44:13.333Z,22.43
2019-03-30T06:46:41.721Z,22.47
2019-03-30T06:49:10.147Z,22.51
2019-03-30T06:51:38.549Z,22.53
2019-03-30T06:54:06.993Z,22.60
2019-03-30T06:56:35.427Z,22.67
2019-03-30T06:59:03.850Z,22.74
2019-03-30T07:01:32.935Z,22.85
2019-03-30T07:04:01.369Z,22.93
2019-03-30T07:06:30.246Z,23.00
2019-03-30T07:09:01.040Z,23.09
2019-03-30T07:11:32.856Z,23.18
2019-03-30T07:14:03.901Z,23.27
2019-03-30T07:16:35.391Z,23.36
2019-03-30T07:19:04.737Z,23.45
2019-03-30T07:21:33.451Z,23.53
2019-03-30T07:24:01.896Z,23.61
2019-03-30T07:26:30.331Z,23.71
2019-03-30T07:28:58.774Z,23.78
2019-03-30T07:31:27.206Z,23.86
2019-03-30T07:33:55.701Z,23.94
2019-03-30T07:36:24.187Z,24.02
2019-03-30T07:38:52.613Z,24.11
2019-03-30T07:41:21.072Z,24.17
2019-03-30T07:43:49.466Z,24.23
2019-03-30T07:46:19.641Z,24.29
2019-03-30T07:48:48.056Z,24.33
2019-03-30T07:51:16.460Z,24.39
2019-03-30T07:53:45.142Z,24.44
2019-03-30T07:56:13.577Z,24.50
2019-03-30T07:58:42.022Z,24.54
2019-03-30T08:01:10.454Z,24.59
2019-03-30T08:03:38.864Z,24.65
2019-03-30T08:06:07.379Z,24.70
2019-03-30T08:08:35.813Z,24.76
2019-03-30T08:11:04.317Z,24.82
2019-03-30T08:13:32.748Z,24.87
2019-03-30T08:16:01.190Z,24.93
2019-03-30T08:18:29.646Z,24.97
2019-03-30T08:20:58.093Z,25.03
2019-03-30T08:23:39.556Z,25.08
2019-03-30T08:25:56.661Z,25.12
2019-03-30T08:28:25.128Z,25.17
2019-03-30T08:30:53.618Z,25.22
2019-03-30T08:33:22.033Z,25.29
2019-03-30T08:35:50.475Z,25.32
2019-03-30T08:38:18.880Z,25.41
2019-03-30T08:40:47.297Z,25.46
2019-03-30T08:43:15.741Z,25.49
2019-03-30T08:45:44.150Z,25.58
2019-03-30T08:48:12.605Z,25.62
2019-03-30T08:50:41.028Z,25.67
2019-03-30T08:53:09.453Z,25.74
2019-03-30T08:55:37.884Z,25.80
2019-03-30T08:58:06.312Z,25.84
2019-03-30T09:00:39.911Z,25.92
2019-03-30T09:03:08.491Z,25.96
2019-03-30T09:05:36.922Z,25.95
2019-03-30T09:08:05.465Z,26.01
2019-03-30T09:10:33.905Z,26.05
2019-03-30T09:13:02.312Z,26.12
2019-03-30T09:15:30.788Z,26.14
2019-03-30T09:17:59.226Z,26.19
2019-03-30T09:20:27.655Z,26.23
2019-03-30T09:22:56.091Z,26.37
2019-03-30T09:25:24.543Z,26.36
2019-03-30T09:27:52.964Z,26.36
2019-03-30T09:30:21.409Z,26.31
2019-03-30T09:32:49.822Z,26.41
2019-03-30T09:35:18.266Z,26.46
2019-03-30T09:37:46.670Z,26.49
2019-03-30T09:40:15.264Z,26.53
2019-03-30T09:42:43.716Z,26.58
2019-03-30T09:45:12.242Z,26.63
2019-03-30T09:47:40.650Z,26.53
2019-03-30T09:50:09.829Z,26.54
2019-03-30T09:52:38.286Z,26.69
2019-03-30T09:55:07.554Z,26.77
2019-03-30T09:57:35.990Z,26.80
2019-03-30T10:00:05.358Z,26.87
2019-03-30T10:02:33.798Z,26.94
2019-03-30T10:05:02.250Z,27.01
2019-03-30T10:07:30.704Z,27.04
2019-03-30T10:09:59.130Z,26.99
2019-03-30T10:12:27.562Z,27.07
2019-03-30T10:14:56.012Z,27.06
2019-03-30T10:17:24.451Z,27.17
2019-03-30T10:20:03.516Z,27.15
2019-03-30T10:22:23.038Z,27.26
2019-03-30T10:24:51.480Z,27.24
2019-03-30T10:27:19.938Z,27.32
2019-03-30T10:29:48.377Z,27.30
2019-03-30T10:32:16.814Z,27.43
2019-03-30T10:34:45.302Z,27.36
2019-03-30T10:37:13.758Z,27.35
2019-03-30T10:39:42.176Z,27.40
2019-03-30T10:42:10.651Z,27.53
2019-03-30T10:44:39.056Z,27.59
2019-03-30T10:47:07.471Z,27.59
2019-03-30T10:49:35.932Z,27.61
2019-03-30T10:52:04.376Z,27.60
2019-03-30T10:54:32.791Z,27.75
2019-03-30T10:57:01.245Z,27.69
2019-03-30T10:59:29.669Z,27.58
2019-03-30T11:01:58.123Z,27.68
2019-03-30T11:04:26.544Z,27.79
2019-03-30T11:06:54.969Z,27.95
2019-03-30T11:09:23.427Z,27.90
2019-03-30T11:11:51.835Z,27.88
2019-03-30T11:14:20.263Z,27.94
2019-03-30T11:16:48.723Z,28.02
2019-03-30T11:19:17.134Z,28.11
2019-03-30T11:21:45.539Z,28.26
2019-03-30T11:24:14.003Z,28.29
2019-03-30T11:26:42.428Z,28.34
2019-03-30T11:29:10.855Z,28.23
2019-03-30T11:31:39.305Z,28.36
2019-03-30T11:34:07.803Z,28.45
2019-03-30T11:36:36.239Z,28.50
2019-03-30T11:39:06.018Z,28.52
2019-03-30T11:41:34.475Z,28.48
2019-03-30T11:44:02.930Z,28.61
2019-03-30T11:46:31.337Z,28.54
2019-03-30T11:48:59.793Z,28.49
2019-03-30T11:51:28.277Z,28.54
2019-03-30T11:53:56.729Z,28.35
2019-03-30T11:56:25.171Z,28.39
2019-03-30T11:58:53.629Z,28.39
2019-03-30T12:01:22.074Z,28.41
2019-03-30T12:03:50.481Z,28.05
2019-03-30T12:06:18.988Z,28.30
2019-03-30T12:08:47.409Z,27.98
2019-03-30T12:11:15.825Z,27.91
2019-03-30T12:13:44.323Z,27.93
2019-03-30T12:16:12.765Z,27.74
2019-03-30T12:18:41.186Z,27.98
2019-03-30T12:21:09.805Z,27.88
2019-03-30T12:23:38.225Z,27.79
2019-03-30T12:26:06.638Z,27.76
2019-03-30T12:28:35.069Z,27.87
2019-03-30T12:31:03.689Z,28.05
2019-03-30T12:33:32.130Z,27.87
2019-03-30T12:36:00.569Z,27.79
2019-03-30T12:38:29.020Z,27.67
2019-03-30T12:40:57.473Z,27.65
2019-03-30T12:43:25.903Z,27.66
2019-03-30T12:45:54.337Z,27.77
2019-03-30T12:48:22.749Z,27.76
2019-03-30T12:50:51.196Z,27.97
2019-03-30T12:53:19.631Z,27.81
2019-03-30T12:55:49.581Z,27.62
2019-03-30T12:58:18.307Z,27.82
2019-03-30T13:00:47.798Z,27.84
2019-03-30T13:03:16.237Z,27.65
2019-03-30T13:05:44.656Z,27.53
2019-03-30T13:08:13.141Z,27.67
2019-03-30T13:10:41.558Z,27.59
2019-03-30T13:13:10.023Z,27.43
2019-03-30T13:15:38.437Z,27.45
2019-03-30T13:18:06.878Z,27.15
2019-03-30T13:20:35.316Z,27.08
2019-03-30T13:23:03.778Z,26.96
2019-03-30T13:25:32.271Z,27.02
2019-03-30T13:28:00.697Z,26.76
2019-03-30T13:30:29.135Z,26.68
2019-03-30T13:32:57.556Z,26.61
2019-03-30T13:35:26.004Z,26.44
2019-03-30T13:37:54.479Z,26.31
2019-03-30T13:40:22.989Z,26.27
2019-03-30T13:42:51.453Z,26.19
2019-03-30T13:45:19.952Z,26.13
2019-03-30T13:47:48.356Z,26.05
2019-03-30T13:50:16.782Z,25.97
2019-03-30T13:52:45.237Z,25.97
2019-03-30T13:55:14.263Z,25.97
2019-03-30T13:57:42.816Z,25.87
2019-03-30T14:00:11.789Z,25.78
2019-03-30T14:02:40.210Z,25.71
2019-03-30T14:05:09.477Z,25.68
2019-03-30T14:07:37.959Z,25.60
2019-03-30T14:10:09.832Z,25.61
2019-03-30T14:12:38.382Z,25.60
2019-03-30T14:15:09.317Z,25.58
2019-03-30T14:17:37.603Z,25.60
2019-03-30T14:20:07.973Z,25.54
2019-03-30T14:22:37.378Z,25.45
2019-03-30T14:25:07.008Z,25.42
2019-03-30T14:27:35.459Z,25.35
2019-03-30T14:30:05.429Z,25.33
2019-03-30T14:32:33.860Z,25.35
2019-03-30T14:35:02.287Z,25.37
2019-03-30T14:37:30.731Z,25.45
2019-03-30T14:39:59.161Z,25.39
2019-03-30T14:42:27.601Z,25.32
2019-03-30T14:44:56.048Z,25.21
2019-03-30T14:47:24.463Z,25.19
2019-03-30T14:49:52.899Z,25.21
2019-03-30T14:52:21.338Z,25.19
2019-03-30T14:54:53.020Z,25.19
2019-03-30T14:57:19.931Z,25.15
2019-03-30T14:59:48.333Z,25.14
2019-03-30T15:02:16.795Z,25.12
2019-03-30T15:04:45.248Z,25.09
2019-03-30T15:07:13.737Z,25.10
2019-03-30T15:09:42.205Z,25.08
2019-03-30T15:12:10.641Z,25.04
2019-03-30T15:14:39.054Z,25.04
2019-03-30T15:17:07.537Z,25.01
2019-03-30T15:19:36.035Z,25.01
2019-03-30T15:22:04.520Z,24.97
2019-03-30T15:24:32.963Z,24.92
2019-03-30T15:27:01.378Z,24.90
2019-03-30T15:29:29.817Z,24.88
2019-03-30T15:31:58.240Z,24.88
2019-03-30T15:34:26.666Z,24.88
2019-03-30T15:36:55.071Z,24.87
2019-03-30T15:39:23.513Z,24.85
2019-03-30T15:41:51.949Z,24.82
2019-03-30T15:44:20.365Z,24.82
2019-03-30T15:46:48.793Z,24.81
2019-03-30T15:49:17.297Z,24.79
2019-03-30T15:51:45.721Z,24.78
2019-03-30T15:54:14.189Z,24.78
2019-03-30T15:56:42.652Z,24.78
2019-03-30T15:59:11.187Z,24.78
2019-03-30T16:01:39.956Z,24.77
2019-03-30T16:04:08.409Z,24.74
2019-03-30T16:06:36.813Z,24.73
2019-03-30T16:09:06.793Z,24.70
2019-03-30T16:11:35.225Z,24.67
2019-03-30T16:14:03.655Z,24.69
2019-03-30T16:16:32.260Z,24.67
2019-03-30T16:19:00.701Z,24.59
2019-03-30T16:21:29.125Z,24.59
2019-03-30T16:23:57.542Z,24.55
2019-03-30T16:26:26.063Z,24.55
2019-03-30T16:28:54.481Z,24.53
2019-03-30T16:31:22.900Z,24.56
2019-03-30T16:33:57.443Z,24.54
2019-03-30T16:36:25.847Z,24.52
2019-03-30T16:38:54.291Z,24.52
2019-03-30T16:41:22.831Z,24.51
2019-03-30T16:43:51.253Z,24.53
2019-03-30T16:46:19.771Z,24.51
2019-03-30T16:48:48.209Z,24.49
2019-03-30T16:51:16.800Z,24.44
2019-03-30T16:53:47.276Z,24.46
2019-03-30T16:56:15.389Z,24.48
2019-03-30T16:58:43.827Z,24.49
2019-03-30T17:01:12.426Z,24.47
2019-03-30T17:03:41.022Z,24.50
2019-03-30T17:06:09.436Z,24.50
2019-03-30T17:08:37.889Z,24.48
2019-03-30T17:11:06.306Z,24.50
2019-03-30T17:13:34.766Z,24.49
2019-03-30T17:16:03.226Z,24.48
2019-03-30T17:18:31.657Z,24.46
2019-03-30T17:21:00.134Z,24.46
2019-03-30T17:23:28.643Z,24.46
2019-03-30T17:25:57.064Z,24.45
2019-03-30T17:28:25.499Z,24.43
2019-03-30T17:30:53.978Z,24.44
2019-03-30T17:33:22.432Z,24.43
2019-03-30T17:35:50.928Z,24.42
2019-03-30T17:38:19.446Z,24.41
2019-03-30T17:40:48.126Z,24.38
2019-03-30T17:43:16.579Z,24.38
2019-03-30T17:45:45.009Z,24.37
2019-03-30T17:48:13.484Z,24.36
2019-03-30T17:50:41.898Z,24.36
2019-03-30T17:53:10.322Z,24.33
2019-03-30T17:55:38.779Z,24.33
2019-03-30T17:58:13.262Z,24.33
2019-03-30T18:00:37.426Z,24.33
2019-03-30T18:03:05.902Z,24.32
2019-03-30T18:05:34.390Z,24.30
2019-03-30T18:08:02.841Z,24.29
2019-03-30T18:10:31.261Z,24.27
2019-03-30T18:12:59.718Z,24.24
2019-03-30T18:15:28.162Z,24.24
2019-03-30T18:17:57.023Z,24.21
2019-03-30T18:20:25.515Z,24.20
2019-03-30T18:22:53.960Z,24.18
2019-03-30T18:25:22.672Z,24.17
2019-03-30T18:27:51.090Z,24.15
2019-03-30T18:30:22.562Z,24.14
2019-03-30T18:32:53.453Z,24.12
2019-03-30T18:35:21.166Z,24.11
2019-03-30T18:37:49.675Z,24.09
2019-03-30T18:40:27.100Z,24.05
2019-03-30T18:42:55.710Z,24.02
2019-03-30T18:45:28.675Z,23.99
2019-03-30T18:48:11.162Z,23.97
2019-03-30T18:50:41.421Z,23.93
2019-03-30T18:53:10.160Z,23.89
2019-03-30T18:55:38.631Z,23.87
2019-03-30T18:58:07.137Z,23.85
2019-03-30T19:00:35.668Z,23.82
2019-03-30T19:03:04.502Z,23.78
2019-03-30T19:05:32.962Z,23.76
2019-03-30T19:08:02.346Z,23.75
2019-03-30T19:10:30.788Z,23.73
2019-03-30T19:12:59.288Z,23.73
2019-03-30T19:15:27.760Z,23.70
2019-03-30T19:17:56.576Z,23.68
2019-03-30T19:20:24.996Z,23.66
2019-03-30T19:22:53.455Z,23.65
2019-03-30T19:25:21.893Z,23.63
2019-03-30T19:27:50.319Z,23.62
2019-03-30T19:30:20.446Z,23.61
2019-03-30T19:32:48.876Z,23.59
2019-03-30T19:35:17.314Z,23.58
2019-03-30T19:37:45.736Z,23.57
2019-03-30T19:40:14.332Z,23.55
2019-03-30T19:42:42.778Z,23.54
2019-03-30T19:45:11.554Z,23.53
2019-03-30T19:47:39.988Z,23.51
2019-03-30T19:50:08.773Z,23.50
2019-03-30T19:52:40.130Z,23.49
2019-03-30T19:55:07.944Z,23.47
2019-03-30T19:57:36.342Z,23.46
2019-03-30T20:00:07.838Z,23.44
2019-03-30T20:02:36.272Z,23.44
2019-03-30T20:05:06.650Z,23.43
2019-03-30T20:07:35.089Z,23.41
2019-03-30T20:10:04.256Z,23.38
2019-03-30T20:12:32.742Z,23.38
2019-03-30T20:15:01.129Z,23.36
2019-03-30T20:17:29.540Z,23.35
2019-03-30T20:19:57.997Z,23.34
2019-03-30T20:22:26.417Z,23.33
2019-03-30T20:24:54.903Z,23.32
2019-03-30T20:27:23.386Z,23.31
2019-03-30T20:29:51.762Z,23.30
2019-03-30T20:32:20.208Z,23.29
2019-03-30T20:34:48.639Z,23.28
2019-03-30T20:37:17.050Z,23.27
2019-03-30T20:39:45.483Z,23.25
2019-03-30T20:42:13.941Z,23.24
2019-03-30T20:44:42.367Z,23.24
2019-03-30T20:47:10.815Z,23.21
2019-03-30T20:49:39.298Z,23.20
2019-03-30T20:52:07.783Z,23.19
2019-03-30T20:54:36.230Z,23.18
2019-03-30T20:57:04.673Z,23.18
2019-03-30T20:59:39.851Z,23.16
2019-03-30T21:02:03.278Z,23.16
2019-03-30T21:04:32.657Z,23.14
2019-03-30T21:07:01.109Z,23.15
2019-03-30T21:09:29.535Z,23.13
2019-03-30T21:11:57.977Z,23.11
2019-03-30T21:14:26.396Z,23.11
2019-03-30T21:16:54.835Z,23.09
2019-03-30T21:19:23.259Z,23.09
2019-03-30T21:21:51.673Z,23.08
2019-03-30T21:24:20.109Z,23.07
2019-03-30T21:26:48.560Z,23.05
2019-03-30T21:29:16.991Z,23.05
2019-03-30T21:31:49.032Z,23.05
2019-03-30T21:34:15.857Z,23.04
2019-03-30T21:36:44.303Z,23.03
2019-03-30T21:39:12.718Z,23.02
2019-03-30T21:41:41.177Z,23.03
2019-03-30T21:44:21.446Z,23.01
2019-03-30T21:46:39.818Z,23.00
2019-03-30T21:49:08.273Z,22.99
2019-03-30T21:51:36.685Z,22.98
2019-03-30T21:54:05.144Z,22.96
2019-03-30T21:56:33.615Z,22.96
2019-03-30T21:59:02.397Z,22.95
2019-03-30T22:01:30.815Z,22.95
2019-03-30T22:03:59.259Z,22.94
2019-03-30T22:06:27.757Z,22.93
2019-03-30T22:08:56.635Z,22.92
2019-03-30T22:11:25.069Z,22.92
2019-03-30T22:13:53.500Z,22.92
2019-03-30T22:16:21.943Z,22.91
2019-03-30T22:18:50.404Z,22.90
2019-03-30T22:21:18.813Z,22.90
2019-03-30T22:23:47.268Z,22.90
2019-03-30T22:26:15.708Z,22.88
2019-03-30T22:28:44.226Z,22.88
2019-03-30T22:31:12.644Z,22.87
2019-03-30T22:33:41.061Z,22.86
2019-03-30T22:36:09.505Z,22.85
2019-03-30T22:38:37.943Z,22.84
2019-03-30T22:41:06.390Z,22.84
2019-03-30T22:43:34.808Z,22.83
2019-03-30T22:46:03.246Z,22.84
2019-03-30T22:48:31.707Z,22.81
2019-03-30T22:51:00.136Z,22.80
2019-03-30T22:53:28.569Z,22.80
2019-03-30T22:55:57.008Z,22.79
2019-03-30T22:58:25.437Z,22.78
2019-03-30T23:00:57.811Z,22.76
2019-03-30T23:03:26.228Z,22.76
2019-03-30T23:05:54.650Z,22.75
2019-03-30T23:08:23.095Z,22.75
2019-03-30T23:10:51.554Z,22.74
2019-03-30T23:13:19.973Z,22.73
2019-03-30T23:15:48.404Z,22.72
2019-03-30T23:18:16.847Z,22.70
2019-03-30T23:20:45.247Z,22.70
2019-03-30T23:23:13.694Z,22.70
2019-03-30T23:25:42.131Z,22.67
2019-03-30T23:28:10.571Z,22.68
2019-03-30T23:30:53.158Z,22.66
2019-03-30T23:33:09.166Z,22.65
2019-03-30T23:35:37.584Z,22.65
2019-03-30T23:38:06.106Z,22.64
2019-03-30T23:40:34.518Z,22.65
2019-03-30T23:43:02.933Z,22.64
2019-03-30T23:45:31.380Z,22.64
2019-03-30T23:47:59.786Z,22.65
2019-03-30T23:50:28.224Z,22.64
2019-03-30T23:52:56.652Z,22.63
2019-03-30T23:55:25.114Z,22.62
2019-03-30T23:57:53.508Z,22.62
